createdAt,value
2022-08-25T00:00:37.870Z,1020.52
2022-08-25T00:10:14.958Z,1020.51
2022-08-25T00:19:51.928Z,1020.49
2022-08-25T00:29:28.907Z,1020.54
2022-08-25T00:39:05.964Z,1020.54
2022-08-25T00:48:43.490Z,1020.52
2022-08-25T00:58:20.247Z,1020.58
2022-08-25T01:07:58.708Z,1020.48
2022-08-25T01:17:34.828Z,1020.38
2022-08-25T01:36:48.925Z,1020.43
2022-08-25T01:46:26.019Z,1020.38
2022-08-25T01:56:03.876Z,1020.41
2022-08-25T02:05:40.127Z,1020.39
2022-08-25T02:15:17.476Z,1020.34
2022-08-25T02:24:54.585Z,1020.26
2022-08-25T02:34:31.662Z,1020.13
2022-08-25T02:44:08.830Z,1020.14
2022-08-25T02:53:46.323Z,1020.11
2022-08-25T03:03:23.504Z,1020.14
2022-08-25T03:13:00.674Z,1020.18
2022-08-25T03:22:38.037Z,1020.19
2022-08-25T03:32:15.075Z,1020.23
2022-08-25T03:41:52.162Z,1020.19
2022-08-25T03:51:29.274Z,1020.16
2022-08-25T04:01:05.999Z,1020.16
2022-08-25T04:10:43.169Z,1020.26
2022-08-25T04:20:20.538Z,1020.31
2022-08-25T04:29:57.832Z,1020.32
2022-08-25T04:39:35.223Z,1020.36
2022-08-25T04:49:12.656Z,1020.27
2022-08-25T04:58:49.790Z,1020.09
2022-08-25T05:08:27.161Z,1020.14
2022-08-25T05:18:04.618Z,1020.15
2022-08-25T05:27:42.635Z,1020.23
2022-08-25T05:37:20.650Z,1020.22
2022-08-25T05:46:58.733Z,1020.18
2022-08-25T05:56:36.865Z,1020.02
2022-08-25T06:06:15.024Z,1019.97
2022-08-25T06:15:53.753Z,1019.77
2022-08-25T06:25:32.675Z,1019.76
2022-08-25T06:35:11.102Z,1019.65
2022-08-25T06:54:28.526Z,1019.67
2022-08-25T07:04:10.563Z,1019.64
2022-08-25T07:13:46.690Z,1019.53
2022-08-25T07:23:25.687Z,1019.44
2022-08-25T07:33:06.430Z,1019.34
2022-08-25T07:42:41.920Z,1019.3
2022-08-25T07:52:18.960Z,1019.23
2022-08-25T08:01:56.873Z,1019.14
2022-08-25T08:11:34.715Z,1019.08
2022-08-25T08:21:13.223Z,1018.99
2022-08-25T08:30:52.796Z,1018.94
2022-08-25T08:40:29.808Z,1018.73
2022-08-25T08:50:08.677Z,1018.72
2022-08-25T08:59:48.674Z,1018.7
2022-08-25T09:09:26.589Z,1018.55
2022-08-25T09:19:05.528Z,1018.43
2022-08-25T09:28:45.678Z,1018.37
2022-08-25T09:38:25.482Z,1018.26
2022-08-25T09:48:05.519Z,1018.1
2022-08-25T09:57:52.853Z,1018.08
2022-08-25T10:17:27.378Z,1017.61
2022-08-25T10:26:54.858Z,1017.46
2022-08-25T10:46:24.352Z,1017.03
2022-08-25T10:55:58.535Z,1017.11
2022-08-25T11:05:24.435Z,1017.08
2022-08-25T11:15:03.407Z,1016.82
2022-08-25T11:24:43.689Z,1016.78
2022-08-25T11:34:20.083Z,1016.5
2022-08-25T11:43:55.446Z,1016.54
2022-08-25T11:53:37.659Z,1016.38
2022-08-25T12:03:20.236Z,1016.21
2022-08-25T12:13:10.496Z,1016.01
2022-08-25T12:22:50.070Z,1015.85
2022-08-25T12:41:57.155Z,1015.69
2022-08-25T12:51:41.686Z,1015.71
2022-08-25T13:01:10.235Z,1015.8
2022-08-25T13:10:46.924Z,1015.66
2022-08-25T13:20:39.685Z,1015.44
2022-08-25T13:30:23.161Z,1015.28
2022-08-25T13:40:04.659Z,1014.98
2022-08-25T13:49:31.581Z,1015.14
2022-08-25T13:58:54.616Z,1014.94
2022-08-25T14:08:47.491Z,1014.69
2022-08-25T14:18:27.019Z,1014.69
2022-08-25T14:28:06.566Z,1014.63
2022-08-25T14:37:38.917Z,1014.56
2022-08-25T14:56:52.891Z,1014.27
2022-08-25T15:16:01.499Z,1014.28
2022-08-25T15:25:40.473Z,1014.19
2022-08-25T15:35:17.798Z,1014.26
2022-08-25T15:44:52.955Z,1014.26
2022-08-25T15:54:22.754Z,1014.19
2022-08-25T16:03:59.345Z,1014.22
2022-08-25T16:13:35.030Z,1014.15
2022-08-25T16:23:11.090Z,1014.08
2022-08-25T16:32:47.459Z,1014.1
2022-08-25T16:42:23.896Z,1014.09
2022-08-25T16:52:00.170Z,1014.12
2022-08-25T17:11:12.949Z,1014.14
2022-08-25T17:40:03.951Z,1014.2
2022-08-25T17:49:40.768Z,1014.17
2022-08-25T17:59:17.953Z,1014.31
2022-08-25T18:08:58.805Z,1014.33
2022-08-25T18:18:31.432Z,1014.39
2022-08-25T18:28:08.482Z,1014.59
2022-08-25T18:47:21.991Z,1014.77
2022-08-25T18:56:58.870Z,1014.84
2022-08-25T19:06:35.694Z,1014.9
2022-08-25T19:16:12.676Z,1014.91
2022-08-25T19:25:50.994Z,1014.89
2022-08-25T19:35:30.431Z,1014.93
2022-08-25T19:45:03.505Z,1014.89
2022-08-25T19:54:44.125Z,1014.92
2022-08-25T20:13:54.627Z,1015.05
2022-08-25T20:23:31.590Z,1015.09
2022-08-25T20:33:08.909Z,1015.19
2022-08-25T20:42:45.968Z,1015.23
2022-08-25T20:52:23.644Z,1015.3
2022-08-25T21:02:00.629Z,1015.25
2022-08-25T21:11:37.857Z,1015.26
2022-08-25T21:21:15.562Z,1015.32
2022-08-25T21:30:56.081Z,1015.24
2022-08-25T21:40:30.767Z,1015.29
2022-08-25T21:50:07.971Z,1015.31
2022-08-25T21:59:45.803Z,1015.33
2022-08-25T22:09:23.158Z,1015.42
2022-08-25T22:18:59.707Z,1015.36
2022-08-25T22:28:36.784Z,1015.3
2022-08-25T22:38:14.301Z,1015.3
2022-08-25T22:47:51.609Z,1015.25
2022-08-25T22:57:28.601Z,1015.21
2022-08-25T23:07:07.711Z,1015.1
2022-08-25T23:16:43.794Z,1015.07
2022-08-25T23:26:20.995Z,1014.93
2022-08-25T23:35:58.265Z,1014.91
2022-08-25T23:45:35.584Z,1014.83
2022-08-25T23:55:13.146Z,1014.78
